sensor_id;sensor_type;location;lat;lon;timestamp;P1;durP1;ratioP1;P2;durP2;ratioP2
15516;SDS011;7860;52.030;5.572;2022-10-26T00:02:50;14.60;;;6.06;;
15516;SDS011;7860;52.030;5.572;2022-10-26T00:02:50;11.82;;;5.36;;
15516;SDS011;7860;52.030;5.572;2022-10-26T00:02:50;12.24;;;5.98;;
15516;SDS011;7860;52.030;5.572;2022-10-26T00:03:49;10.09;;;5.19;;
15516;SDS011;7860;52.030;5.572;2022-10-26T00:04:49;11.18;;;5.71;;
15516;SDS011;7860;52.030;5.572;2022-10-26T00:05:49;11.34;;;5.45;;
15516;SDS011;7860;52.030;5.572;2022-10-26T00:06:49;11.79;;;5.89;;
15516;SDS011;7860;52.030;5.572;2022-10-26T00:07:49;13.18;;;5.74;;
15516;SDS011;7860;52.030;5.572;2022-10-26T00:08:49;10.98;;;5.89;;
15516;SDS011;7860;52.030;5.572;2022-10-26T00:09:50;9.43;;;5.19;;
15516;SDS011;7860;52.030;5.572;2022-10-26T00:10:50;9.57;;;5.29;;
15516;SDS011;7860;52.030;5.572;2022-10-26T00:11:51;11.34;;;5.71;;
15516;SDS011;7860;52.030;5.572;2022-10-26T00:12:51;12.00;;;5.60;;
15516;SDS011;7860;52.030;5.572;2022-10-26T00:13:51;10.20;;;5.31;;
15516;SDS011;7860;52.030;5.572;2022-10-26T00:14:51;12.41;;;5.49;;
15516;SDS011;7860;52.030;5.572;2022-10-26T00:15:51;11.77;;;5.67;;
15516;SDS011;7860;52.030;5.572;2022-10-26T00:16:52;10.38;;;5.70;;
15516;SDS011;7860;52.030;5.572;2022-10-26T00:17:52;10.98;;;5.50;;
15516;SDS011;7860;52.030;5.572;2022-10-26T00:18:53;17.12;;;5.73;;
15516;SDS011;7860;52.030;5.572;2022-10-26T00:19:53;9.43;;;5.15;;
15516;SDS011;7860;52.030;5.572;2022-10-26T00:20:53;11.57;;;5.87;;
15516;SDS011;7860;52.030;5.572;2022-10-26T00:21:53;11.61;;;5.68;;
15516;SDS011;7860;52.030;5.572;2022-10-26T00:22:54;11.49;;;5.23;;
15516;SDS011;7860;52.030;5.572;2022-10-26T00:23:54;11.25;;;5.56;;
15516;SDS011;7860;52.030;5.572;2022-10-26T00:24:54;11.64;;;5.20;;
15516;SDS011;7860;52.030;5.572;2022-10-26T00:25:54;10.42;;;4.75;;
15516;SDS011;7860;52.030;5.572;2022-10-26T00:26:54;10.47;;;5.17;;
15516;SDS011;7860;52.030;5.572;2022-10-26T00:27:54;10.38;;;5.13;;
15516;SDS011;7860;52.030;5.572;2022-10-26T00:28:54;9.11;;;4.41;;
15516;SDS011;7860;52.030;5.572;2022-10-26T00:29:55;11.09;;;5.06;;
15516;SDS011;7860;52.030;5.572;2022-10-26T00:30:59;9.68;;;4.88;;
15516;SDS011;7860;52.030;5.572;2022-10-26T00:31:55;8.37;;;4.47;;
15516;SDS011;7860;52.030;5.572;2022-10-26T00:32:55;13.06;;;4.96;;
15516;SDS011;7860;52.030;5.572;2022-10-26T00:33:56;10.17;;;5.06;;
15516;SDS011;7860;52.030;5.572;2022-10-26T00:34:55;11.52;;;5.20;;
15516;SDS011;7860;52.030;5.572;2022-10-26T00:35:55;11.70;;;5.13;;
15516;SDS011;7860;52.030;5.572;2022-10-26T00:36:56;9.79;;;4.67;;
15516;SDS011;7860;52.030;5.572;2022-10-26T00:37:56;9.99;;;4.75;;
15516;SDS011;7860;52.030;5.572;2022-10-26T00:38:56;9.84;;;4.61;;
15516;SDS011;7860;52.030;5.572;2022-10-26T00:39:57;10.91;;;4.92;;
15516;SDS011;7860;52.030;5.572;2022-10-26T00:40:57;9.54;;;4.82;;
15516;SDS011;7860;52.030;5.572;2022-10-26T00:41:57;10.58;;;4.61;;
15516;SDS011;7860;52.030;5.572;2022-10-26T00:42:57;8.65;;;4.43;;
15516;SDS011;7860;52.030;5.572;2022-10-26T00:43:58;12.42;;;5.08;;
15516;SDS011;7860;52.030;5.572;2022-10-26T00:44:58;11.66;;;5.03;;
15516;SDS011;7860;52.030;5.572;2022-10-26T00:45:58;9.48;;;4.80;;
15516;SDS011;7860;52.030;5.572;2022-10-26T00:46:58;9.43;;;4.58;;
15516;SDS011;7860;52.030;5.572;2022-10-26T00:48:00;10.72;;;4.57;;
15516;SDS011;7860;52.030;5.572;2022-10-26T00:49:00;8.84;;;4.60;;
15516;SDS011;7860;52.030;5.572;2022-10-26T00:50:01;9.50;;;4.46;;
15516;SDS011;7860;52.030;5.572;2022-10-26T00:51:02;9.40;;;4.66;;
15516;SDS011;7860;52.030;5.572;2022-10-26T00:52:00;9.36;;;4.65;;
15516;SDS011;7860;52.030;5.572;2022-10-26T00:53:01;9.88;;;4.75;;
15516;SDS011;7860;52.030;5.572;2022-10-26T00:54:02;10.35;;;5.27;;
15516;SDS011;7860;52.030;5.572;2022-10-26T00:55:03;9.77;;;4.40;;
15516;SDS011;7860;52.030;5.572;2022-10-26T00:56:02;9.18;;;4.85;;
15516;SDS011;7860;52.030;5.572;2022-10-26T00:57:02;11.74;;;5.09;;
15516;SDS011;7860;52.030;5.572;2022-10-26T00:58:03;9.49;;;4.46;;
15516;SDS011;7860;52.030;5.572;2022-10-26T00:59:04;9.19;;;4.30;;
15516;SDS011;7860;52.030;5.572;2022-10-26T01:00:06;9.31;;;4.01;;
15516;SDS011;7860;52.030;5.572;2022-10-26T01:01:02;11.39;;;4.31;;
15516;SDS011;7860;52.030;5.572;2022-10-26T01:02:02;11.00;;;4.97;;
15516;SDS011;7860;52.030;5.572;2022-10-26T01:03:03;10.60;;;5.25;;
15516;SDS011;7860;52.030;5.572;2022-10-26T01:04:03;9.28;;;4.73;;
15516;SDS011;7860;52.030;5.572;2022-10-26T01:05:03;11.34;;;4.93;;
15516;SDS011;7860;52.030;5.572;2022-10-26T01:06:04;10.83;;;4.94;;
15516;SDS011;7860;52.030;5.572;2022-10-26T01:07:04;10.97;;;4.89;;
15516;SDS011;7860;52.030;5.572;2022-10-26T01:08:04;11.77;;;5.40;;
15516;SDS011;7860;52.030;5.572;2022-10-26T01:09:04;12.20;;;4.90;;
15516;SDS011;7860;52.030;5.572;2022-10-26T01:10:05;11.20;;;5.37;;
15516;SDS011;7860;52.030;5.572;2022-10-26T01:11:05;9.61;;;4.63;;
15516;SDS011;7860;52.030;5.572;2022-10-26T01:12:05;10.71;;;5.03;;
15516;SDS011;7860;52.030;5.572;2022-10-26T01:13:05;11.91;;;5.35;;
15516;SDS011;7860;52.030;5.572;2022-10-26T01:14:06;13.73;;;5.51;;
15516;SDS011;7860;52.030;5.572;2022-10-26T01:15:06;10.52;;;4.98;;
15516;SDS011;7860;52.030;5.572;2022-10-26T01:16:12;10.47;;;4.82;;
15516;SDS011;7860;52.030;5.572;2022-10-26T01:17:10;10.36;;;5.10;;
15516;SDS011;7860;52.030;5.572;2022-10-26T01:18:07;10.97;;;5.34;;
15516;SDS011;7860;52.030;5.572;2022-10-26T01:19:13;11.37;;;4.58;;
15516;SDS011;7860;52.030;5.572;2022-10-26T01:20:16;11.29;;;4.41;;
15516;SDS011;7860;52.030;5.572;2022-10-26T01:21:13;11.62;;;5.10;;
15516;SDS011;7860;52.030;5.572;2022-10-26T01:22:08;11.11;;;5.26;;
15516;SDS011;7860;52.030;5.572;2022-10-26T01:23:10;11.08;;;4.93;;
15516;SDS011;7860;52.030;5.572;2022-10-26T01:24:17;11.79;;;5.31;;
15516;SDS011;7860;52.030;5.572;2022-10-26T01:25:12;11.17;;;5.50;;
15516;SDS011;7860;52.030;5.572;2022-10-26T01:26:16;9.93;;;5.07;;
15516;SDS011;7860;52.030;5.572;2022-10-26T01:27:17;11.29;;;5.09;;
15516;SDS011;7860;52.030;5.572;2022-10-26T01:28:12;10.71;;;5.34;;
15516;SDS011;7860;52.030;5.572;2022-10-26T01:29:13;11.13;;;5.27;;
15516;SDS011;7860;52.030;5.572;2022-10-26T01:30:18;10.99;;;5.43;;
15516;SDS011;7860;52.030;5.572;2022-10-26T01:31:10;10.73;;;4.92;;
15516;SDS011;7860;52.030;5.572;2022-10-26T01:32:11;10.66;;;4.79;;
15516;SDS011;7860;52.030;5.572;2022-10-26T01:33:14;11.51;;;5.10;;
15516;SDS011;7860;52.030;5.572;2022-10-26T01:34:11;8.59;;;4.80;;
15516;SDS011;7860;52.030;5.572;2022-10-26T01:35:11;10.62;;;5.00;;
15516;SDS011;7860;52.030;5.572;2022-10-26T01:36:12;12.38;;;4.89;;
15516;SDS011;7860;52.030;5.572;2022-10-26T01:37:12;12.29;;;4.95;;
15516;SDS011;7860;52.030;5.572;2022-10-26T01:38:13;8.92;;;4.72;;
15516;SDS011;7860;52.030;5.572;2022-10-26T01:39:14;10.02;;;5.12;;
15516;SDS011;7860;52.030;5.572;2022-10-26T01:40:15;11.16;;;5.52;;
15516;SDS011;7860;52.030;5.572;2022-10-26T01:41:15;10.58;;;4.55;;
15516;SDS011;7860;52.030;5.572;2022-10-26T01:42:14;9.86;;;5.36;;
15516;SDS011;7860;52.030;5.572;2022-10-26T01:43:15;9.85;;;5.25;;
15516;SDS011;7860;52.030;5.572;2022-10-26T01:44:16;8.17;;;4.07;;
15516;SDS011;7860;52.030;5.572;2022-10-26T01:45:15;10.79;;;5.12;;
15516;SDS011;7860;52.030;5.572;2022-10-26T01:46:16;11.49;;;4.70;;
15516;SDS011;7860;52.030;5.572;2022-10-26T01:47:16;9.84;;;4.77;;
15516;SDS011;7860;52.030;5.572;2022-10-26T01:48:17;8.50;;;4.41;;
15516;SDS011;7860;52.030;5.572;2022-10-26T01:49:19;8.85;;;4.32;;
15516;SDS011;7860;52.030;5.572;2022-10-26T01:50:17;9.20;;;4.40;;
15516;SDS011;7860;52.030;5.572;2022-10-26T01:51:17;10.51;;;4.87;;
15516;SDS011;7860;52.030;5.572;2022-10-26T01:52:18;11.69;;;4.90;;
15516;SDS011;7860;52.030;5.572;2022-10-26T01:53:18;10.99;;;5.19;;
15516;SDS011;7860;52.030;5.572;2022-10-26T01:54:18;11.43;;;5.27;;
15516;SDS011;7860;52.030;5.572;2022-10-26T01:56:19;12.74;;;5.78;;
15516;SDS011;7860;52.030;5.572;2022-10-26T01:57:20;11.36;;;6.21;;
15516;SDS011;7860;52.030;5.572;2022-10-26T01:58:26;13.62;;;5.52;;
15516;SDS011;7860;52.030;5.572;2022-10-26T01:59:23;12.53;;;5.53;;
15516;SDS011;7860;52.030;5.572;2022-10-26T02:00:20;10.38;;;5.34;;
15516;SDS011;7860;52.030;5.572;2022-10-26T02:01:27;12.20;;;5.62;;
15516;SDS011;7860;52.030;5.572;2022-10-26T02:02:31;12.19;;;5.93;;
15516;SDS011;7860;52.030;5.572;2022-10-26T02:03:21;10.94;;;5.69;;
15516;SDS011;7860;52.030;5.572;2022-10-26T02:04:24;11.84;;;5.87;;
15516;SDS011;7860;52.030;5.572;2022-10-26T02:05:29;12.07;;;5.96;;
15516;SDS011;7860;52.030;5.572;2022-10-26T02:06:24;11.91;;;6.01;;
15516;SDS011;7860;52.030;5.572;2022-10-26T02:07:23;13.58;;;6.00;;
15516;SDS011;7860;52.030;5.572;2022-10-26T02:08:25;13.18;;;6.08;;
15516;SDS011;7860;52.030;5.572;2022-10-26T02:09:23;10.77;;;5.86;;
15516;SDS011;7860;52.030;5.572;2022-10-26T02:10:26;11.05;;;5.49;;
15516;SDS011;7860;52.030;5.572;2022-10-26T02:11:28;10.88;;;5.71;;
15516;SDS011;7860;52.030;5.572;2022-10-26T02:12:27;14.37;;;6.44;;
15516;SDS011;7860;52.030;5.572;2022-10-26T02:13:25;13.02;;;6.17;;
15516;SDS011;7860;52.030;5.572;2022-10-26T02:14:25;12.38;;;5.69;;
15516;SDS011;7860;52.030;5.572;2022-10-26T02:15:24;11.91;;;6.17;;
15516;SDS011;7860;52.030;5.572;2022-10-26T02:16:25;10.85;;;5.43;;
15516;SDS011;7860;52.030;5.572;2022-10-26T02:17:26;12.20;;;6.03;;
15516;SDS011;7860;52.030;5.572;2022-10-26T02:18:27;13.19;;;5.94;;
15516;SDS011;7860;52.030;5.572;2022-10-26T02:19:26;13.00;;;5.73;;
15516;SDS011;7860;52.030;5.572;2022-10-26T02:20:25;13.62;;;5.96;;
15516;SDS011;7860;52.030;5.572;2022-10-26T02:21:25;10.95;;;5.72;;
15516;SDS011;7860;52.030;5.572;2022-10-26T02:22:25;12.51;;;5.75;;
15516;SDS011;7860;52.030;5.572;2022-10-26T02:23:25;11.63;;;5.90;;
15516;SDS011;7860;52.030;5.572;2022-10-26T02:24:25;14.31;;;5.86;;
15516;SDS011;7860;52.030;5.572;2022-10-26T02:25:27;13.91;;;5.58;;
15516;SDS011;7860;52.030;5.572;2022-10-26T02:26:27;12.07;;;6.00;;
15516;SDS011;7860;52.030;5.572;2022-10-26T02:27:27;11.98;;;5.44;;
15516;SDS011;7860;52.030;5.572;2022-10-26T02:28:27;12.45;;;5.65;;
15516;SDS011;7860;52.030;5.572;2022-10-26T02:29:26;12.28;;;5.95;;
15516;SDS011;7860;52.030;5.572;2022-10-26T02:30:26;12.24;;;6.20;;
15516;SDS011;7860;52.030;5.572;2022-10-26T02:31:28;11.98;;;5.83;;
15516;SDS011;7860;52.030;5.572;2022-10-26T02:32:28;11.07;;;5.52;;
15516;SDS011;7860;52.030;5.572;2022-10-26T02:33:28;12.45;;;5.57;;
15516;SDS011;7860;52.030;5.572;2022-10-26T02:34:27;11.02;;;5.43;;
15516;SDS011;7860;52.030;5.572;2022-10-26T02:35:28;12.45;;;5.34;;
15516;SDS011;7860;52.030;5.572;2022-10-26T02:36:29;11.61;;;5.80;;
15516;SDS011;7860;52.030;5.572;2022-10-26T02:37:27;11.67;;;5.44;;
15516;SDS011;7860;52.030;5.572;2022-10-26T02:38:28;12.11;;;5.50;;
15516;SDS011;7860;52.030;5.572;2022-10-26T02:39:28;14.53;;;5.93;;
15516;SDS011;7860;52.030;5.572;2022-10-26T02:40:28;13.20;;;5.16;;
15516;SDS011;7860;52.030;5.572;2022-10-26T02:41:28;10.91;;;5.56;;
15516;SDS011;7860;52.030;5.572;2022-10-26T02:42:29;11.23;;;5.28;;
15516;SDS011;7860;52.030;5.572;2022-10-26T02:43:29;11.18;;;5.68;;
15516;SDS011;7860;52.030;5.572;2022-10-26T02:44:29;11.31;;;5.35;;
15516;SDS011;7860;52.030;5.572;2022-10-26T02:45:33;13.97;;;5.30;;
15516;SDS011;7860;52.030;5.572;2022-10-26T02:46:29;10.75;;;5.53;;
15516;SDS011;7860;52.030;5.572;2022-10-26T02:47:30;12.48;;;5.58;;
15516;SDS011;7860;52.030;5.572;2022-10-26T02:48:30;13.59;;;5.61;;
15516;SDS011;7860;52.030;5.572;2022-10-26T02:49:30;12.17;;;5.94;;
15516;SDS011;7860;52.030;5.572;2022-10-26T02:50:32;11.65;;;5.48;;
15516;SDS011;7860;52.030;5.572;2022-10-26T02:51:31;10.54;;;5.35;;
15516;SDS011;7860;52.030;5.572;2022-10-26T02:52:32;13.91;;;5.28;;
15516;SDS011;7860;52.030;5.572;2022-10-26T02:53:31;11.96;;;5.58;;
15516;SDS011;7860;52.030;5.572;2022-10-26T02:54:31;11.33;;;5.54;;
15516;SDS011;7860;52.030;5.572;2022-10-26T02:55:31;11.16;;;5.70;;
15516;SDS011;7860;52.030;5.572;2022-10-26T02:56:31;13.58;;;5.71;;
15516;SDS011;7860;52.030;5.572;2022-10-26T02:57:32;10.51;;;5.15;;
15516;SDS011;7860;52.030;5.572;2022-10-26T02:58:32;11.98;;;5.34;;
15516;SDS011;7860;52.030;5.572;2022-10-26T02:59:31;11.74;;;5.25;;
15516;SDS011;7860;52.030;5.572;2022-10-26T03:00:31;11.17;;;5.08;;
15516;SDS011;7860;52.030;5.572;2022-10-26T03:01:31;11.82;;;5.54;;
15516;SDS011;7860;52.030;5.572;2022-10-26T03:02:32;11.58;;;5.34;;
15516;SDS011;7860;52.030;5.572;2022-10-26T03:03:32;10.77;;;4.97;;
15516;SDS011;7860;52.030;5.572;2022-10-26T03:04:33;10.64;;;5.26;;
15516;SDS011;7860;52.030;5.572;2022-10-26T03:05:33;11.41;;;5.22;;
15516;SDS011;7860;52.030;5.572;2022-10-26T03:06:33;11.47;;;4.93;;
15516;SDS011;7860;52.030;5.572;2022-10-26T03:07:33;10.74;;;5.27;;
15516;SDS011;7860;52.030;5.572;2022-10-26T03:08:34;12.75;;;4.99;;
15516;SDS011;7860;52.030;5.572;2022-10-26T03:09:34;12.27;;;5.49;;
15516;SDS011;7860;52.030;5.572;2022-10-26T03:10:34;11.84;;;5.12;;
15516;SDS011;7860;52.030;5.572;2022-10-26T03:11:34;12.91;;;5.22;;
15516;SDS011;7860;52.030;5.572;2022-10-26T03:12:34;10.02;;;4.83;;
15516;SDS011;7860;52.030;5.572;2022-10-26T03:13:34;9.04;;;4.89;;
15516;SDS011;7860;52.030;5.572;2022-10-26T03:14:34;13.76;;;5.00;;
15516;SDS011;7860;52.030;5.572;2022-10-26T03:15:34;10.23;;;4.99;;
15516;SDS011;7860;52.030;5.572;2022-10-26T03:16:34;10.35;;;4.47;;
15516;SDS011;7860;52.030;5.572;2022-10-26T03:17:34;10.96;;;4.88;;
15516;SDS011;7860;52.030;5.572;2022-10-26T03:18:34;10.85;;;4.73;;
15516;SDS011;7860;52.030;5.572;2022-10-26T03:19:34;9.17;;;4.73;;
15516;SDS011;7860;52.030;5.572;2022-10-26T03:20:34;11.78;;;4.99;;
15516;SDS011;7860;52.030;5.572;2022-10-26T03:21:34;9.99;;;5.17;;
15516;SDS011;7860;52.030;5.572;2022-10-26T03:22:34;10.00;;;4.98;;
15516;SDS011;7860;52.030;5.572;2022-10-26T03:23:35;10.49;;;4.88;;
15516;SDS011;7860;52.030;5.572;2022-10-26T03:24:35;10.24;;;4.82;;
15516;SDS011;7860;52.030;5.572;2022-10-26T03:25:35;10.64;;;4.71;;
15516;SDS011;7860;52.030;5.572;2022-10-26T03:26:35;9.48;;;4.79;;
15516;SDS011;7860;52.030;5.572;2022-10-26T03:27:35;11.96;;;5.24;;
15516;SDS011;7860;52.030;5.572;2022-10-26T03:28:35;12.60;;;4.92;;
15516;SDS011;7860;52.030;5.572;2022-10-26T03:29:35;12.22;;;5.23;;
15516;SDS011;7860;52.030;5.572;2022-10-26T03:30:36;12.33;;;5.60;;
15516;SDS011;7860;52.030;5.572;2022-10-26T03:31:36;11.66;;;5.75;;
15516;SDS011;7860;52.030;5.572;2022-10-26T03:32:36;12.43;;;5.24;;
15516;SDS011;7860;52.030;5.572;2022-10-26T03:33:36;12.72;;;6.14;;
15516;SDS011;7860;52.030;5.572;2022-10-26T03:34:36;12.78;;;5.44;;
15516;SDS011;7860;52.030;5.572;2022-10-26T03:35:39;14.12;;;5.38;;
15516;SDS011;7860;52.030;5.572;2022-10-26T03:36:36;11.90;;;5.69;;
15516;SDS011;7860;52.030;5.572;2022-10-26T03:37:36;15.33;;;5.59;;
15516;SDS011;7860;52.030;5.572;2022-10-26T03:38:36;9.47;;;4.61;;
15516;SDS011;7860;52.030;5.572;2022-10-26T03:39:36;10.58;;;4.62;;
15516;SDS011;7860;52.030;5.572;2022-10-26T03:40:36;12.03;;;5.63;;
15516;SDS011;7860;52.030;5.572;2022-10-26T03:41:36;11.66;;;5.18;;
15516;SDS011;7860;52.030;5.572;2022-10-26T03:42:36;10.38;;;5.25;;
15516;SDS011;7860;52.030;5.572;2022-10-26T03:43:37;10.87;;;4.89;;
15516;SDS011;7860;52.030;5.572;2022-10-26T03:44:37;11.03;;;5.19;;
15516;SDS011;7860;52.030;5.572;2022-10-26T03:45:37;11.63;;;4.97;;
15516;SDS011;7860;52.030;5.572;2022-10-26T03:46:37;11.05;;;5.24;;
15516;SDS011;7860;52.030;5.572;2022-10-26T03:47:45;11.30;;;5.07;;
15516;SDS011;7860;52.030;5.572;2022-10-26T03:48:38;11.08;;;5.34;;
15516;SDS011;7860;52.030;5.572;2022-10-26T03:49:38;9.95;;;5.12;;
15516;SDS011;7860;52.030;5.572;2022-10-26T03:50:38;10.98;;;5.08;;
15516;SDS011;7860;52.030;5.572;2022-10-26T03:51:38;12.17;;;4.86;;
15516;SDS011;7860;52.030;5.572;2022-10-26T03:52:38;10.22;;;4.70;;
15516;SDS011;7860;52.030;5.572;2022-10-26T03:53:38;10.87;;;4.92;;
15516;SDS011;7860;52.030;5.572;2022-10-26T03:54:39;11.77;;;4.98;;
15516;SDS011;7860;52.030;5.572;2022-10-26T03:55:42;11.10;;;5.30;;
15516;SDS011;7860;52.030;5.572;2022-10-26T03:56:39;11.70;;;5.21;;
15516;SDS011;7860;52.030;5.572;2022-10-26T03:57:39;10.46;;;5.15;;
15516;SDS011;7860;52.030;5.572;2022-10-26T03:58:39;11.00;;;5.07;;
15516;SDS011;7860;52.030;5.572;2022-10-26T03:59:39;11.04;;;5.34;;
15516;SDS011;7860;52.030;5.572;2022-10-26T04:00:39;12.00;;;5.27;;
15516;SDS011;7860;52.030;5.572;2022-10-26T04:01:40;13.38;;;5.42;;
15516;SDS011;7860;52.030;5.572;2022-10-26T04:02:40;15.52;;;5.40;;
15516;SDS011;7860;52.030;5.572;2022-10-26T04:03:40;13.17;;;5.27;;
15516;SDS011;7860;52.030;5.572;2022-10-26T04:04:40;10.52;;;5.08;;
15516;SDS011;7860;52.030;5.572;2022-10-26T04:05:40;11.51;;;5.25;;
15516;SDS011;7860;52.030;5.572;2022-10-26T04:06:40;13.27;;;6.06;;
15516;SDS011;7860;52.030;5.572;2022-10-26T04:07:40;11.69;;;5.30;;
15516;SDS011;7860;52.030;5.572;2022-10-26T04:08:40;12.43;;;5.31;;
15516;SDS011;7860;52.030;5.572;2022-10-26T04:09:40;11.10;;;5.48;;
15516;SDS011;7860;52.030;5.572;2022-10-26T04:10:40;11.49;;;5.37;;
15516;SDS011;7860;52.030;5.572;2022-10-26T04:11:40;10.84;;;5.36;;
15516;SDS011;7860;52.030;5.572;2022-10-26T04:12:40;13.44;;;5.37;;
15516;SDS011;7860;52.030;5.572;2022-10-26T04:13:40;11.14;;;5.14;;
15516;SDS011;7860;52.030;5.572;2022-10-26T04:14:41;13.79;;;6.02;;
15516;SDS011;7860;52.030;5.572;2022-10-26T04:15:41;11.36;;;5.74;;
15516;SDS011;7860;52.030;5.572;2022-10-26T04:16:42;13.86;;;5.68;;
15516;SDS011;7860;52.030;5.572;2022-10-26T04:17:42;12.46;;;5.70;;
15516;SDS011;7860;52.030;5.572;2022-10-26T04:18:42;12.05;;;5.55;;
15516;SDS011;7860;52.030;5.572;2022-10-26T04:19:42;13.73;;;5.87;;
15516;SDS011;7860;52.030;5.572;2022-10-26T04:20:42;11.73;;;5.18;;
15516;SDS011;7860;52.030;5.572;2022-10-26T04:21:43;11.87;;;5.05;;
15516;SDS011;7860;52.030;5.572;2022-10-26T04:22:43;12.63;;;5.42;;
15516;SDS011;7860;52.030;5.572;2022-10-26T04:23:42;11.54;;;5.90;;
15516;SDS011;7860;52.030;5.572;2022-10-26T04:24:43;14.07;;;5.72;;
15516;SDS011;7860;52.030;5.572;2022-10-26T04:25:44;13.15;;;5.93;;
15516;SDS011;7860;52.030;5.572;2022-10-26T04:26:44;11.74;;;5.77;;
15516;SDS011;7860;52.030;5.572;2022-10-26T04:27:44;13.29;;;5.89;;
15516;SDS011;7860;52.030;5.572;2022-10-26T04:28:45;9.67;;;5.07;;
15516;SDS011;7860;52.030;5.572;2022-10-26T04:29:45;11.89;;;5.99;;
15516;SDS011;7860;52.030;5.572;2022-10-26T04:30:46;13.60;;;6.00;;
15516;SDS011;7860;52.030;5.572;2022-10-26T04:31:45;14.62;;;5.94;;
15516;SDS011;7860;52.030;5.572;2022-10-26T04:32:45;12.08;;;5.56;;
15516;SDS011;7860;52.030;5.572;2022-10-26T04:33:45;11.11;;;5.78;;
15516;SDS011;7860;52.030;5.572;2022-10-26T04:34:45;12.59;;;5.93;;
15516;SDS011;7860;52.030;5.572;2022-10-26T04:35:45;16.63;;;6.10;;
15516;SDS011;7860;52.030;5.572;2022-10-26T04:36:45;11.38;;;5.79;;
15516;SDS011;7860;52.030;5.572;2022-10-26T04:37:45;12.18;;;5.68;;
15516;SDS011;7860;52.030;5.572;2022-10-26T04:38:46;9.86;;;5.43;;
15516;SDS011;7860;52.030;5.572;2022-10-26T04:39:46;12.75;;;5.49;;
15516;SDS011;7860;52.030;5.572;2022-10-26T04:40:46;14.58;;;5.67;;
15516;SDS011;7860;52.030;5.572;2022-10-26T04:41:46;13.45;;;5.78;;
15516;SDS011;7860;52.030;5.572;2022-10-26T04:42:46;11.66;;;5.54;;
15516;SDS011;7860;52.030;5.572;2022-10-26T04:43:46;11.09;;;5.69;;
15516;SDS011;7860;52.030;5.572;2022-10-26T04:44:46;14.05;;;5.87;;
15516;SDS011;7860;52.030;5.572;2022-10-26T04:45:46;11.58;;;5.75;;
15516;SDS011;7860;52.030;5.572;2022-10-26T04:46:46;13.44;;;5.70;;
15516;SDS011;7860;52.030;5.572;2022-10-26T04:47:46;10.72;;;5.44;;
15516;SDS011;7860;52.030;5.572;2022-10-26T04:48:46;11.77;;;5.86;;
15516;SDS011;7860;52.030;5.572;2022-10-26T04:49:46;11.22;;;5.93;;
15516;SDS011;7860;52.030;5.572;2022-10-26T04:50:47;10.46;;;5.62;;
15516;SDS011;7860;52.030;5.572;2022-10-26T04:51:47;12.97;;;6.03;;
15516;SDS011;7860;52.030;5.572;2022-10-26T04:52:48;11.43;;;5.62;;
15516;SDS011;7860;52.030;5.572;2022-10-26T04:53:47;11.81;;;5.50;;
15516;SDS011;7860;52.030;5.572;2022-10-26T04:54:48;14.74;;;6.28;;
15516;SDS011;7860;52.030;5.572;2022-10-26T04:55:48;11.54;;;5.98;;
15516;SDS011;7860;52.030;5.572;2022-10-26T04:56:49;14.47;;;5.93;;
15516;SDS011;7860;52.030;5.572;2022-10-26T04:57:48;11.86;;;5.74;;
15516;SDS011;7860;52.030;5.572;2022-10-26T04:58:48;10.94;;;5.76;;
15516;SDS011;7860;52.030;5.572;2022-10-26T04:59:48;12.35;;;6.06;;
15516;SDS011;7860;52.030;5.572;2022-10-26T05:00:49;12.98;;;5.73;;
15516;SDS011;7860;52.030;5.572;2022-10-26T05:01:49;13.35;;;5.67;;
15516;SDS011;7860;52.030;5.572;2022-10-26T05:02:49;12.18;;;6.30;;
15516;SDS011;7860;52.030;5.572;2022-10-26T05:03:49;12.63;;;5.64;;
15516;SDS011;7860;52.030;5.572;2022-10-26T05:04:49;13.20;;;6.34;;
15516;SDS011;7860;52.030;5.572;2022-10-26T05:05:49;12.94;;;5.59;;
15516;SDS011;7860;52.030;5.572;2022-10-26T05:06:50;14.32;;;6.22;;
15516;SDS011;7860;52.030;5.572;2022-10-26T05:07:52;12.89;;;6.23;;
15516;SDS011;7860;52.030;5.572;2022-10-26T05:08:50;16.05;;;6.28;;
15516;SDS011;7860;52.030;5.572;2022-10-26T05:09:50;11.09;;;5.32;;
15516;SDS011;7860;52.030;5.572;2022-10-26T05:10:50;11.63;;;6.12;;
15516;SDS011;7860;52.030;5.572;2022-10-26T05:11:50;13.97;;;6.12;;
15516;SDS011;7860;52.030;5.572;2022-10-26T05:12:51;11.44;;;5.54;;
15516;SDS011;7860;52.030;5.572;2022-10-26T05:13:51;15.22;;;6.10;;
15516;SDS011;7860;52.030;5.572;2022-10-26T05:14:51;13.75;;;5.72;;
15516;SDS011;7860;52.030;5.572;2022-10-26T05:15:51;10.47;;;5.61;;
15516;SDS011;7860;52.030;5.572;2022-10-26T05:16:52;11.83;;;5.95;;
15516;SDS011;7860;52.030;5.572;2022-10-26T05:17:53;13.34;;;6.08;;
15516;SDS011;7860;52.030;5.572;2022-10-26T05:18:52;14.93;;;6.06;;
15516;SDS011;7860;52.030;5.572;2022-10-26T05:19:52;11.99;;;5.72;;
15516;SDS011;7860;52.030;5.572;2022-10-26T05:20:53;11.67;;;6.15;;
15516;SDS011;7860;52.030;5.572;2022-10-26T05:21:53;13.35;;;6.21;;
15516;SDS011;7860;52.030;5.572;2022-10-26T05:22:53;15.54;;;6.48;;
15516;SDS011;7860;52.030;5.572;2022-10-26T05:23:54;14.70;;;6.31;;
15516;SDS011;7860;52.030;5.572;2022-10-26T05:24:54;16.78;;;6.31;;
15516;SDS011;7860;52.030;5.572;2022-10-26T05:25:54;11.94;;;5.98;;
15516;SDS011;7860;52.030;5.572;2022-10-26T05:26:54;12.38;;;5.97;;
15516;SDS011;7860;52.030;5.572;2022-10-26T05:27:56;12.78;;;5.87;;
15516;SDS011;7860;52.030;5.572;2022-10-26T05:28:55;12.31;;;5.56;;
15516;SDS011;7860;52.030;5.572;2022-10-26T05:29:55;12.05;;;6.02;;
15516;SDS011;7860;52.030;5.572;2022-10-26T05:30:57;13.57;;;6.26;;
15516;SDS011;7860;52.030;5.572;2022-10-26T05:31:55;12.64;;;5.95;;
15516;SDS011;7860;52.030;5.572;2022-10-26T05:32:56;12.99;;;5.59;;
15516;SDS011;7860;52.030;5.572;2022-10-26T05:33:55;11.28;;;5.45;;
15516;SDS011;7860;52.030;5.572;2022-10-26T05:34:55;13.46;;;5.83;;
15516;SDS011;7860;52.030;5.572;2022-10-26T05:35:55;15.50;;;5.55;;
15516;SDS011;7860;52.030;5.572;2022-10-26T05:36:55;13.76;;;6.07;;
15516;SDS011;7860;52.030;5.572;2022-10-26T05:37:55;12.63;;;6.28;;
15516;SDS011;7860;52.030;5.572;2022-10-26T05:38:56;13.65;;;5.98;;
15516;SDS011;7860;52.030;5.572;2022-10-26T05:39:56;13.12;;;5.58;;
15516;SDS011;7860;52.030;5.572;2022-10-26T05:40:56;13.28;;;5.55;;
15516;SDS011;7860;52.030;5.572;2022-10-26T05:41:56;13.89;;;6.34;;
15516;SDS011;7860;52.030;5.572;2022-10-26T05:42:58;12.50;;;5.88;;
15516;SDS011;7860;52.030;5.572;2022-10-26T05:43:56;12.42;;;5.98;;
15516;SDS011;7860;52.030;5.572;2022-10-26T05:44:56;11.52;;;5.95;;
15516;SDS011;7860;52.030;5.572;2022-10-26T05:45:57;14.55;;;6.15;;
15516;SDS011;7860;52.030;5.572;2022-10-26T05:46:57;12.81;;;5.96;;
15516;SDS011;7860;52.030;5.572;2022-10-26T05:47:57;12.86;;;5.87;;
15516;SDS011;7860;52.030;5.572;2022-10-26T05:48:58;13.91;;;5.41;;
15516;SDS011;7860;52.030;5.572;2022-10-26T05:49:57;13.56;;;6.16;;
15516;SDS011;7860;52.030;5.572;2022-10-26T05:50:58;14.05;;;6.06;;
15516;SDS011;7860;52.030;5.572;2022-10-26T05:51:58;12.51;;;5.96;;
15516;SDS011;7860;52.030;5.572;2022-10-26T05:52:58;15.71;;;6.03;;
15516;SDS011;7860;52.030;5.572;2022-10-26T05:53:58;12.20;;;5.68;;
15516;SDS011;7860;52.030;5.572;2022-10-26T05:54:58;11.81;;;5.44;;
15516;SDS011;7860;52.030;5.572;2022-10-26T05:55:59;12.59;;;5.66;;
15516;SDS011;7860;52.030;5.572;2022-10-26T05:56:59;13.77;;;5.54;;
15516;SDS011;7860;52.030;5.572;2022-10-26T05:57:59;14.49;;;6.01;;
15516;SDS011;7860;52.030;5.572;2022-10-26T05:58:59;14.29;;;5.84;;
15516;SDS011;7860;52.030;5.572;2022-10-26T05:59:59;13.33;;;5.84;;
15516;SDS011;7860;52.030;5.572;2022-10-26T06:01:02;12.43;;;5.86;;
15516;SDS011;7860;52.030;5.572;2022-10-26T06:02:02;14.28;;;6.00;;
15516;SDS011;7860;52.030;5.572;2022-10-26T06:03:04;11.93;;;5.88;;
15516;SDS011;7860;52.030;5.572;2022-10-26T06:04:03;12.05;;;5.76;;
15516;SDS011;7860;52.030;5.572;2022-10-26T06:05:02;11.42;;;5.84;;